sensor_id;sensor_type;location;lat;lon;timestamp;P1;durP1;ratioP1;P2;durP2;ratioP2
28625;SDS011;18905;42.668;23.364;2022-08-14T00:00:13;33.78;;;23.30;;
28625;SDS011;18905;42.668;23.364;2022-08-14T00:02:42;31.38;;;20.90;;
28625;SDS011;18905;42.668;23.364;2022-08-14T00:05:09;31.67;;;20.58;;
28625;SDS011;18905;42.668;23.364;2022-08-14T00:07:37;33.20;;;21.73;;
28625;SDS011;18905;42.668;23.364;2022-08-14T00:10:06;31.10;;;20.95;;
28625;SDS011;18905;42.668;23.364;2022-08-14T00:12:33;24.83;;;19.08;;
28625;SDS011;18905;42.668;23.364;2022-08-14T00:15:01;23.95;;;18.65;;
28625;SDS011;18905;42.668;23.364;2022-08-14T00:17:29;23.75;;;18.45;;
28625;SDS011;18905;42.668;23.364;2022-08-14T00:19:54;25.20;;;18.15;;
28625;SDS011;18905;42.668;23.364;2022-08-14T00:22:20;28.48;;;17.75;;
28625;SDS011;18905;42.668;23.364;2022-08-14T00:24:46;22.55;;;15.27;;
28625;SDS011;18905;42.668;23.364;2022-08-14T00:27:11;25.75;;;17.52;;
28625;SDS011;18905;42.668;23.364;2022-08-14T00:29:37;26.95;;;16.90;;
28625;SDS011;18905;42.668;23.364;2022-08-14T00:32:02;24.52;;;16.92;;
28625;SDS011;18905;42.668;23.364;2022-08-14T00:34:28;23.52;;;17.08;;
28625;SDS011;18905;42.668;23.364;2022-08-14T00:36:53;23.00;;;17.38;;
28625;SDS011;18905;42.668;23.364;2022-08-14T00:39:19;23.15;;;17.13;;
28625;SDS011;18905;42.668;23.364;2022-08-14T00:41:45;28.65;;;17.10;;
28625;SDS011;18905;42.668;23.364;2022-08-14T00:44:11;21.92;;;16.23;;
28625;SDS011;18905;42.668;23.364;2022-08-14T00:46:38;20.95;;;16.90;;
28625;SDS011;18905;42.668;23.364;2022-08-14T00:49:05;20.83;;;15.95;;
28625;SDS011;18905;42.668;23.364;2022-08-14T00:51:32;30.73;;;18.88;;
28625;SDS011;18905;42.668;23.364;2022-08-14T00:53:58;26.67;;;18.13;;
28625;SDS011;18905;42.668;23.364;2022-08-14T00:56:24;28.85;;;19.42;;
28625;SDS011;18905;42.668;23.364;2022-08-14T00:58:50;34.95;;;19.90;;
28625;SDS011;18905;42.668;23.364;2022-08-14T01:01:18;34.33;;;19.60;;
28625;SDS011;18905;42.668;23.364;2022-08-14T01:03:44;29.35;;;19.48;;
28625;SDS011;18905;42.668;23.364;2022-08-14T01:06:10;27.90;;;18.25;;
28625;SDS011;18905;42.668;23.364;2022-08-14T01:08:39;26.83;;;20.23;;
28625;SDS011;18905;42.668;23.364;2022-08-14T01:11:06;31.63;;;19.95;;
28625;SDS011;18905;42.668;23.364;2022-08-14T01:13:34;27.55;;;19.02;;
28625;SDS011;18905;42.668;23.364;2022-08-14T01:16:02;26.10;;;18.33;;
28625;SDS011;18905;42.668;23.364;2022-08-14T01:18:31;27.52;;;18.67;;
28625;SDS011;18905;42.668;23.364;2022-08-14T01:21:15;30.88;;;19.35;;
28625;SDS011;18905;42.668;23.364;2022-08-14T01:23:47;25.70;;;19.33;;
28625;SDS011;18905;42.668;23.364;2022-08-14T01:26:15;28.35;;;17.40;;
28625;SDS011;18905;42.668;23.364;2022-08-14T01:28:47;25.35;;;17.95;;
28625;SDS011;18905;42.668;23.364;2022-08-14T01:31:15;26.25;;;17.40;;
28625;SDS011;18905;42.668;23.364;2022-08-14T01:33:44;28.13;;;15.15;;
28625;SDS011;18905;42.668;23.364;2022-08-14T01:36:12;23.27;;;13.70;;
28625;SDS011;18905;42.668;23.364;2022-08-14T01:38:40;19.65;;;12.55;;
28625;SDS011;18905;42.668;23.364;2022-08-14T01:41:09;18.50;;;11.82;;
28625;SDS011;18905;42.668;23.364;2022-08-14T01:43:47;19.40;;;11.82;;
28625;SDS011;18905;42.668;23.364;2022-08-14T01:46:15;16.52;;;11.23;;
28625;SDS011;18905;42.668;23.364;2022-08-14T01:48:42;14.52;;;11.57;;
28625;SDS011;18905;42.668;23.364;2022-08-14T01:51:09;15.10;;;10.68;;
28625;SDS011;18905;42.668;23.364;2022-08-14T01:53:39;13.85;;;11.63;;
28625;SDS011;18905;42.668;23.364;2022-08-14T01:56:07;17.85;;;11.55;;
28625;SDS011;18905;42.668;23.364;2022-08-14T01:58:33;16.67;;;11.45;;
28625;SDS011;18905;42.668;23.364;2022-08-14T02:00:58;18.95;;;11.25;;
28625;SDS011;18905;42.668;23.364;2022-08-14T02:03:27;16.02;;;11.38;;
28625;SDS011;18905;42.668;23.364;2022-08-14T02:05:59;13.93;;;11.63;;
28625;SDS011;18905;42.668;23.364;2022-08-14T02:08:26;14.88;;;10.75;;
28625;SDS011;18905;42.668;23.364;2022-08-14T02:10:54;15.98;;;11.27;;
28625;SDS011;18905;42.668;23.364;2022-08-14T02:13:44;17.15;;;11.27;;
28625;SDS011;18905;42.668;23.364;2022-08-14T02:16:20;13.68;;;11.15;;
28625;SDS011;18905;42.668;23.364;2022-08-14T02:18:54;17.45;;;12.43;;
28625;SDS011;18905;42.668;23.364;2022-08-14T02:21:21;15.57;;;10.63;;
28625;SDS011;18905;42.668;23.364;2022-08-14T02:23:47;15.40;;;11.10;;
28625;SDS011;18905;42.668;23.364;2022-08-14T02:26:19;12.63;;;10.68;;
28625;SDS011;18905;42.668;23.364;2022-08-14T02:28:53;21.58;;;12.55;;
28625;SDS011;18905;42.668;23.364;2022-08-14T02:31:28;20.30;;;12.55;;
28625;SDS011;18905;42.668;23.364;2022-08-14T02:34:04;18.65;;;12.48;;
28625;SDS011;18905;42.668;23.364;2022-08-14T02:36:33;17.15;;;12.60;;
28625;SDS011;18905;42.668;23.364;2022-08-14T02:38:58;20.77;;;13.15;;
28625;SDS011;18905;42.668;23.364;2022-08-14T02:41:24;16.40;;;12.35;;
28625;SDS011;18905;42.668;23.364;2022-08-14T02:43:49;18.67;;;12.55;;
28625;SDS011;18905;42.668;23.364;2022-08-14T02:46:15;20.67;;;12.88;;
28625;SDS011;18905;42.668;23.364;2022-08-14T02:48:42;18.65;;;12.00;;
28625;SDS011;18905;42.668;23.364;2022-08-14T02:51:09;17.85;;;13.20;;
28625;SDS011;18905;42.668;23.364;2022-08-14T02:53:40;21.50;;;14.00;;
28625;SDS011;18905;42.668;23.364;2022-08-14T02:56:08;18.63;;;13.82;;
28625;SDS011;18905;42.668;23.364;2022-08-14T02:58:36;19.75;;;14.40;;
28625;SDS011;18905;42.668;23.364;2022-08-14T03:01:06;16.83;;;12.60;;
28625;SDS011;18905;42.668;23.364;2022-08-14T03:03:33;16.25;;;12.15;;
28625;SDS011;18905;42.668;23.364;2022-08-14T03:06:01;15.57;;;11.70;;
28625;SDS011;18905;42.668;23.364;2022-08-14T03:08:30;15.95;;;12.23;;
28625;SDS011;18905;42.668;23.364;2022-08-14T03:10:58;15.55;;;12.70;;
28625;SDS011;18905;42.668;23.364;2022-08-14T03:13:30;22.27;;;15.23;;
28625;SDS011;18905;42.668;23.364;2022-08-14T03:15:59;24.25;;;16.92;;
28625;SDS011;18905;42.668;23.364;2022-08-14T03:18:26;35.50;;;22.00;;
28625;SDS011;18905;42.668;23.364;2022-08-14T03:20:51;27.90;;;19.95;;
28625;SDS011;18905;42.668;23.364;2022-08-14T03:23:18;26.17;;;19.08;;
28625;SDS011;18905;42.668;23.364;2022-08-14T03:25:44;26.40;;;18.88;;
28625;SDS011;18905;42.668;23.364;2022-08-14T03:28:10;27.73;;;17.58;;
28625;SDS011;18905;42.668;23.364;2022-08-14T03:30:36;24.95;;;19.15;;
28625;SDS011;18905;42.668;23.364;2022-08-14T03:33:03;23.42;;;17.25;;
28625;SDS011;18905;42.668;23.364;2022-08-14T03:35:29;27.42;;;18.45;;
28625;SDS011;18905;42.668;23.364;2022-08-14T03:38:03;36.85;;;20.15;;
28625;SDS011;18905;42.668;23.364;2022-08-14T03:40:30;30.27;;;20.23;;
28625;SDS011;18905;42.668;23.364;2022-08-14T03:42:55;25.65;;;18.85;;
28625;SDS011;18905;42.668;23.364;2022-08-14T03:45:20;32.78;;;20.45;;
28625;SDS011;18905;42.668;23.364;2022-08-14T03:47:49;35.90;;;22.65;;
28625;SDS011;18905;42.668;23.364;2022-08-14T03:50:14;35.88;;;24.67;;
28625;SDS011;18905;42.668;23.364;2022-08-14T03:52:40;32.53;;;19.95;;
28625;SDS011;18905;42.668;23.364;2022-08-14T03:55:10;30.88;;;22.02;;
28625;SDS011;18905;42.668;23.364;2022-08-14T03:57:36;36.70;;;24.10;;
28625;SDS011;18905;42.668;23.364;2022-08-14T04:00:07;37.33;;;21.48;;
28625;SDS011;18905;42.668;23.364;2022-08-14T04:02:38;41.30;;;26.63;;
28625;SDS011;18905;42.668;23.364;2022-08-14T04:05:08;36.22;;;24.33;;
28625;SDS011;18905;42.668;23.364;2022-08-14T04:07:34;44.70;;;27.42;;
28625;SDS011;18905;42.668;23.364;2022-08-14T04:10:02;41.20;;;25.85;;
28625;SDS011;18905;42.668;23.364;2022-08-14T04:12:28;38.10;;;25.55;;
28625;SDS011;18905;42.668;23.364;2022-08-14T04:14:53;40.17;;;23.73;;
28625;SDS011;18905;42.668;23.364;2022-08-14T04:17:18;41.75;;;24.70;;
28625;SDS011;18905;42.668;23.364;2022-08-14T04:19:44;37.10;;;24.73;;
28625;SDS011;18905;42.668;23.364;2022-08-14T04:22:11;41.53;;;25.92;;
28625;SDS011;18905;42.668;23.364;2022-08-14T04:24:38;36.38;;;22.77;;
28625;SDS011;18905;42.668;23.364;2022-08-14T04:27:07;34.40;;;22.95;;
28625;SDS011;18905;42.668;23.364;2022-08-14T04:29:38;27.17;;;19.88;;
28625;SDS011;18905;42.668;23.364;2022-08-14T04:32:07;36.75;;;19.73;;
28625;SDS011;18905;42.668;23.364;2022-08-14T04:34:37;33.15;;;22.48;;
28625;SDS011;18905;42.668;23.364;2022-08-14T04:37:04;37.20;;;22.25;;
28625;SDS011;18905;42.668;23.364;2022-08-14T04:39:49;31.75;;;21.75;;
28625;SDS011;18905;42.668;23.364;2022-08-14T04:42:33;38.40;;;24.40;;
28625;SDS011;18905;42.668;23.364;2022-08-14T04:45:23;32.08;;;22.58;;
28625;SDS011;18905;42.668;23.364;2022-08-14T04:47:50;36.55;;;23.00;;
28625;SDS011;18905;42.668;23.364;2022-08-14T04:50:35;32.60;;;20.92;;
28625;SDS011;18905;42.668;23.364;2022-08-14T04:53:01;44.30;;;25.25;;
28625;SDS011;18905;42.668;23.364;2022-08-14T04:55:27;38.28;;;23.33;;
28625;SDS011;18905;42.668;23.364;2022-08-14T04:57:53;42.38;;;27.92;;
28625;SDS011;18905;42.668;23.364;2022-08-14T05:00:19;48.25;;;28.10;;
28625;SDS011;18905;42.668;23.364;2022-08-14T05:02:46;40.05;;;27.48;;
28625;SDS011;18905;42.668;23.364;2022-08-14T05:05:12;42.97;;;29.02;;
28625;SDS011;18905;42.668;23.364;2022-08-14T05:07:37;39.58;;;25.42;;
28625;SDS011;18905;42.668;23.364;2022-08-14T05:10:04;37.28;;;24.77;;
28625;SDS011;18905;42.668;23.364;2022-08-14T05:12:30;47.17;;;30.92;;
28625;SDS011;18905;42.668;23.364;2022-08-14T05:14:55;48.90;;;29.48;;
28625;SDS011;18905;42.668;23.364;2022-08-14T05:17:22;50.17;;;30.15;;
28625;SDS011;18905;42.668;23.364;2022-08-14T05:19:50;34.05;;;22.05;;
28625;SDS011;18905;42.668;23.364;2022-08-14T05:22:15;38.53;;;27.60;;
28625;SDS011;18905;42.668;23.364;2022-08-14T05:24:40;33.70;;;23.20;;
28625;SDS011;18905;42.668;23.364;2022-08-14T05:27:06;34.92;;;22.13;;
28625;SDS011;18905;42.668;23.364;2022-08-14T05:29:33;36.85;;;23.17;;
28625;SDS011;18905;42.668;23.364;2022-08-14T05:31:59;33.75;;;22.50;;
28625;SDS011;18905;42.668;23.364;2022-08-14T05:34:30;33.95;;;22.75;;
28625;SDS011;18905;42.668;23.364;2022-08-14T05:36:55;29.48;;;19.73;;
28625;SDS011;18905;42.668;23.364;2022-08-14T05:39:23;25.38;;;18.05;;
28625;SDS011;18905;42.668;23.364;2022-08-14T05:41:48;30.10;;;22.20;;
28625;SDS011;18905;42.668;23.364;2022-08-14T05:44:14;27.10;;;20.05;;
28625;SDS011;18905;42.668;23.364;2022-08-14T05:46:39;31.75;;;22.35;;
28625;SDS011;18905;42.668;23.364;2022-08-14T05:49:05;33.13;;;21.10;;
28625;SDS011;18905;42.668;23.364;2022-08-14T05:51:30;32.80;;;21.08;;
28625;SDS011;18905;42.668;23.364;2022-08-14T05:53:56;29.63;;;19.80;;
28625;SDS011;18905;42.668;23.364;2022-08-14T05:56:22;22.08;;;17.23;;
28625;SDS011;18905;42.668;23.364;2022-08-14T05:58:49;30.63;;;19.67;;
28625;SDS011;18905;42.668;23.364;2022-08-14T06:01:15;31.90;;;19.85;;
28625;SDS011;18905;42.668;23.364;2022-08-14T06:03:40;26.85;;;18.55;;
28625;SDS011;18905;42.668;23.364;2022-08-14T06:06:06;30.40;;;17.40;;
28625;SDS011;18905;42.668;23.364;2022-08-14T06:08:32;26.67;;;19.15;;
28625;SDS011;18905;42.668;23.364;2022-08-14T06:10:58;26.10;;;19.88;;
28625;SDS011;18905;42.668;23.364;2022-08-14T06:13:30;25.98;;;16.80;;
28625;SDS011;18905;42.668;23.364;2022-08-14T06:15:57;26.75;;;17.63;;
28625;SDS011;18905;42.668;23.364;2022-08-14T06:18:23;29.80;;;20.58;;
28625;SDS011;18905;42.668;23.364;2022-08-14T06:20:49;26.85;;;19.65;;
28625;SDS011;18905;42.668;23.364;2022-08-14T06:23:15;23.83;;;17.25;;
28625;SDS011;18905;42.668;23.364;2022-08-14T06:25:41;25.20;;;19.65;;
28625;SDS011;18905;42.668;23.364;2022-08-14T06:28:14;32.40;;;19.13;;
28625;SDS011;18905;42.668;23.364;2022-08-14T06:30:40;31.52;;;19.60;;
28625;SDS011;18905;42.668;23.364;2022-08-14T06:33:06;28.50;;;20.45;;
28625;SDS011;18905;42.668;23.364;2022-08-14T06:35:31;25.85;;;18.77;;
28625;SDS011;18905;42.668;23.364;2022-08-14T06:37:57;27.77;;;18.27;;
28625;SDS011;18905;42.668;23.364;2022-08-14T06:40:26;32.17;;;21.90;;
28625;SDS011;18905;42.668;23.364;2022-08-14T06:43:00;28.70;;;18.58;;
28625;SDS011;18905;42.668;23.364;2022-08-14T06:45:27;43.97;;;20.95;;
28625;SDS011;18905;42.668;23.364;2022-08-14T06:47:54;37.05;;;21.98;;
28625;SDS011;18905;42.668;23.364;2022-08-14T06:50:21;33.30;;;21.98;;
28625;SDS011;18905;42.668;23.364;2022-08-14T06:52:48;31.83;;;23.58;;
28625;SDS011;18905;42.668;23.364;2022-08-14T06:55:14;35.40;;;24.23;;
28625;SDS011;18905;42.668;23.364;2022-08-14T06:57:48;30.10;;;20.70;;
28625;SDS011;18905;42.668;23.364;2022-08-14T07:00:15;34.00;;;22.80;;
28625;SDS011;18905;42.668;23.364;2022-08-14T07:02:51;35.40;;;23.67;;
28625;SDS011;18905;42.668;23.364;2022-08-14T07:05:35;32.53;;;22.58;;
28625;SDS011;18905;42.668;23.364;2022-08-14T07:10:39;30.17;;;21.88;;
28625;SDS011;18905;42.668;23.364;2022-08-14T07:13:06;30.70;;;22.25;;
28625;SDS011;18905;42.668;23.364;2022-08-14T07:15:32;30.92;;;24.05;;
28625;SDS011;18905;42.668;23.364;2022-08-14T07:17:57;25.20;;;19.23;;
28625;SDS011;18905;42.668;23.364;2022-08-14T07:20:23;37.47;;;22.63;;
28625;SDS011;18905;42.668;23.364;2022-08-14T07:22:49;28.98;;;20.85;;
28625;SDS011;18905;42.668;23.364;2022-08-14T07:25:14;26.10;;;18.35;;
28625;SDS011;18905;42.668;23.364;2022-08-14T07:27:41;53.45;;;30.33;;
28625;SDS011;18905;42.668;23.364;2022-08-14T07:30:07;31.90;;;20.95;;
28625;SDS011;18905;42.668;23.364;2022-08-14T07:32:33;30.67;;;19.00;;
28625;SDS011;18905;42.668;23.364;2022-08-14T07:34:58;24.08;;;17.98;;
28625;SDS011;18905;42.668;23.364;2022-08-14T07:37:24;24.50;;;17.15;;
28625;SDS011;18905;42.668;23.364;2022-08-14T07:39:49;22.75;;;15.88;;
28625;SDS011;18905;42.668;23.364;2022-08-14T07:42:15;20.77;;;15.60;;
28625;SDS011;18905;42.668;23.364;2022-08-14T07:44:41;23.90;;;17.52;;
28625;SDS011;18905;42.668;23.364;2022-08-14T07:47:06;19.85;;;15.32;;
28625;SDS011;18905;42.668;23.364;2022-08-14T07:49:32;24.27;;;16.08;;
28625;SDS011;18905;42.668;23.364;2022-08-14T07:51:58;18.10;;;15.43;;
28625;SDS011;18905;42.668;23.364;2022-08-14T07:54:25;21.75;;;16.85;;
28625;SDS011;18905;42.668;23.364;2022-08-14T07:56:51;25.60;;;17.23;;
28625;SDS011;18905;42.668;23.364;2022-08-14T07:59:16;25.77;;;18.08;;
28625;SDS011;18905;42.668;23.364;2022-08-14T08:01:46;22.13;;;18.05;;
28625;SDS011;18905;42.668;23.364;2022-08-14T08:04:11;22.70;;;17.98;;
28625;SDS011;18905;42.668;23.364;2022-08-14T08:06:38;25.00;;;18.33;;
28625;SDS011;18905;42.668;23.364;2022-08-14T08:09:04;23.88;;;18.30;;
28625;SDS011;18905;42.668;23.364;2022-08-14T08:11:34;21.60;;;17.70;;
28625;SDS011;18905;42.668;23.364;2022-08-14T08:14:01;23.90;;;17.73;;
28625;SDS011;18905;42.668;23.364;2022-08-14T08:16:31;23.60;;;16.00;;
28625;SDS011;18905;42.668;23.364;2022-08-14T08:18:58;18.77;;;15.77;;
28625;SDS011;18905;42.668;23.364;2022-08-14T08:21:23;16.23;;;12.70;;
28625;SDS011;18905;42.668;23.364;2022-08-14T08:23:50;14.90;;;11.60;;
28625;SDS011;18905;42.668;23.364;2022-08-14T08:26:18;15.10;;;11.32;;
28625;SDS011;18905;42.668;23.364;2022-08-14T08:28:43;14.63;;;11.75;;
28625;SDS011;18905;42.668;23.364;2022-08-14T08:31:20;16.10;;;10.30;;
28625;SDS011;18905;42.668;23.364;2022-08-14T08:33:49;10.20;;;7.70;;
28625;SDS011;18905;42.668;23.364;2022-08-14T08:36:16;7.78;;;6.75;;
28625;SDS011;18905;42.668;23.364;2022-08-14T08:38:42;12.25;;;6.75;;
28625;SDS011;18905;42.668;23.364;2022-08-14T08:41:09;10.65;;;6.75;;
28625;SDS011;18905;42.668;23.364;2022-08-14T08:43:35;8.05;;;6.72;;
28625;SDS011;18905;42.668;23.364;2022-08-14T08:46:07;7.95;;;6.93;;
28625;SDS011;18905;42.668;23.364;2022-08-14T08:48:45;9.68;;;6.45;;
28625;SDS011;18905;42.668;23.364;2022-08-14T08:51:27;9.57;;;6.85;;
28625;SDS011;18905;42.668;23.364;2022-08-14T08:54:10;7.38;;;6.50;;
28625;SDS011;18905;42.668;23.364;2022-08-14T08:56:48;8.38;;;7.35;;
28625;SDS011;18905;42.668;23.364;2022-08-14T08:59:27;11.90;;;7.53;;
28625;SDS011;18905;42.668;23.364;2022-08-14T09:01:55;8.68;;;6.70;;
28625;SDS011;18905;42.668;23.364;2022-08-14T09:04:24;8.13;;;6.88;;
28625;SDS011;18905;42.668;23.364;2022-08-14T09:06:51;13.13;;;6.93;;
28625;SDS011;18905;42.668;23.364;2022-08-14T09:09:20;10.90;;;7.13;;
28625;SDS011;18905;42.668;23.364;2022-08-14T09:11:47;8.80;;;5.57;;
28625;SDS011;18905;42.668;23.364;2022-08-14T09:14:13;6.85;;;5.70;;
28625;SDS011;18905;42.668;23.364;2022-08-14T09:16:40;7.75;;;5.90;;
28625;SDS011;18905;42.668;23.364;2022-08-14T09:19:06;6.07;;;5.07;;
28625;SDS011;18905;42.668;23.364;2022-08-14T09:21:33;7.68;;;5.78;;
28625;SDS011;18905;42.668;23.364;2022-08-14T09:23:59;8.85;;;5.82;;
28625;SDS011;18905;42.668;23.364;2022-08-14T09:26:25;6.60;;;5.85;;
28625;SDS011;18905;42.668;23.364;2022-08-14T09:28:50;7.55;;;6.53;;
28625;SDS011;18905;42.668;23.364;2022-08-14T09:31:16;10.02;;;6.68;;
28625;SDS011;18905;42.668;23.364;2022-08-14T09:33:54;7.40;;;6.18;;
28625;SDS011;18905;42.668;23.364;2022-08-14T09:41:58;9.13;;;7.30;;
28625;SDS011;18905;42.668;23.364;2022-08-14T09:44:43;9.27;;;7.85;;
28625;SDS011;18905;42.668;23.364;2022-08-14T09:47:18;9.95;;;7.28;;
28625;SDS011;18905;42.668;23.364;2022-08-14T09:49:45;9.65;;;7.97;;
28625;SDS011;18905;42.668;23.364;2022-08-14T09:52:13;14.52;;;8.15;;
28625;SDS011;18905;42.668;23.364;2022-08-14T09:54:41;9.73;;;7.82;;
28625;SDS011;18905;42.668;23.364;2022-08-14T09:57:10;10.90;;;9.27;;
28625;SDS011;18905;42.668;23.364;2022-08-14T09:59:48;12.63;;;8.18;;
28625;SDS011;18905;42.668;23.364;2022-08-14T10:02:20;13.68;;;7.72;;
28625;SDS011;18905;42.668;23.364;2022-08-14T10:05:00;9.65;;;7.63;;
28625;SDS011;18905;42.668;23.364;2022-08-14T10:07:55;9.98;;;7.72;;
28625;SDS011;18905;42.668;23.364;2022-08-14T10:10:35;9.38;;;8.23;;
28625;SDS011;18905;42.668;23.364;2022-08-14T10:13:07;9.88;;;7.72;;
28625;SDS011;18905;42.668;23.364;2022-08-14T10:15:45;8.50;;;7.28;;
28625;SDS011;18905;42.668;23.364;2022-08-14T10:18:13;8.38;;;6.45;;
28625;SDS011;18905;42.668;23.364;2022-08-14T10:20:42;10.98;;;6.20;;
28625;SDS011;18905;42.668;23.364;2022-08-14T10:23:14;8.25;;;5.75;;
28625;SDS011;18905;42.668;23.364;2022-08-14T10:25:43;9.23;;;6.47;;
28625;SDS011;18905;42.668;23.364;2022-08-14T10:28:11;7.93;;;6.45;;
28625;SDS011;18905;42.668;23.364;2022-08-14T10:30:39;18.70;;;7.10;;
28625;SDS011;18905;42.668;23.364;2022-08-14T10:33:05;8.90;;;6.85;;
28625;SDS011;18905;42.668;23.364;2022-08-14T10:35:41;7.53;;;5.68;;
28625;SDS011;18905;42.668;23.364;2022-08-14T10:38:37;12.98;;;6.63;;
28625;SDS011;18905;42.668;23.364;2022-08-14T10:41:13;8.52;;;5.40;;
28625;SDS011;18905;42.668;23.364;2022-08-14T10:43:40;7.72;;;6.00;;
28625;SDS011;18905;42.668;23.364;2022-08-14T10:46:16;8.27;;;5.00;;
28625;SDS011;18905;42.668;23.364;2022-08-14T10:48:56;6.95;;;5.90;;
28625;SDS011;18905;42.668;23.364;2022-08-14T10:51:25;7.78;;;6.60;;
28625;SDS011;18905;42.668;23.364;2022-08-14T10:53:54;7.95;;;6.68;;
28625;SDS011;18905;42.668;23.364;2022-08-14T10:56:29;8.93;;;5.28;;
28625;SDS011;18905;42.668;23.364;2022-08-14T11:01:32;6.07;;;5.10;;
28625;SDS011;18905;42.668;23.364;2022-08-14T11:03:59;6.05;;;5.00;;
28625;SDS011;18905;42.668;23.364;2022-08-14T11:06:24;7.57;;;5.18;;
28625;SDS011;18905;42.668;23.364;2022-08-14T11:08:50;11.25;;;5.25;;
28625;SDS011;18905;42.668;23.364;2022-08-14T11:11:16;14.20;;;5.47;;
28625;SDS011;18905;42.668;23.364;2022-08-14T11:13:43;8.57;;;5.95;;
28625;SDS011;18905;42.668;23.364;2022-08-14T11:16:10;5.25;;;4.65;;
28625;SDS011;18905;42.668;23.364;2022-08-14T11:18:43;6.47;;;5.28;;
28625;SDS011;18905;42.668;23.364;2022-08-14T11:21:11;6.78;;;4.78;;
28625;SDS011;18905;42.668;23.364;2022-08-14T11:23:40;6.13;;;5.45;;
28625;SDS011;18905;42.668;23.364;2022-08-14T11:26:08;7.57;;;5.32;;
28625;SDS011;18905;42.668;23.364;2022-08-14T11:28:36;7.00;;;5.72;;
28625;SDS011;18905;42.668;23.364;2022-08-14T11:31:03;7.72;;;5.57;;
28625;SDS011;18905;42.668;23.364;2022-08-14T11:33:30;6.20;;;5.60;;
28625;SDS011;18905;42.668;23.364;2022-08-14T11:35:59;6.65;;;5.75;;
28625;SDS011;18905;42.668;23.364;2022-08-14T11:38:27;6.30;;;5.70;;
28625;SDS011;18905;42.668;23.364;2022-08-14T11:40:59;8.40;;;5.68;;
28625;SDS011;18905;42.668;23.364;2022-08-14T11:43:26;7.93;;;5.82;;
28625;SDS011;18905;42.668;23.364;2022-08-14T11:45:51;8.27;;;6.63;;
28625;SDS011;18905;42.668;23.364;2022-08-14T11:50:47;9.18;;;5.75;;
28625;SDS011;18905;42.668;23.364;2022-08-14T11:53:18;8.30;;;5.82;;
28625;SDS011;18905;42.668;23.364;2022-08-14T11:55:47;7.60;;;5.85;;
28625;SDS011;18905;42.668;23.364;2022-08-14T11:58:23;6.78;;;6.03;;
28625;SDS011;18905;42.668;23.364;2022-08-14T12:00:52;11.38;;;6.03;;
28625;SDS011;18905;42.668;23.364;2022-08-14T12:03:37;7.22;;;6.50;;
28625;SDS011;18905;42.668;23.364;2022-08-14T12:06:10;6.47;;;5.70;;
28625;SDS011;18905;42.668;23.364;2022-08-14T12:08:37;6.45;;;5.30;;
28625;SDS011;18905;42.668;23.364;2022-08-14T12:11:05;7.75;;;6.22;;
28625;SDS011;18905;42.668;23.364;2022-08-14T12:13:32;7.57;;;5.57;;
28625;SDS011;18905;42.668;23.364;2022-08-14T12:16:00;9.27;;;6.90;;
28625;SDS011;18905;42.668;23.364;2022-08-14T12:18:35;7.57;;;6.75;;
28625;SDS011;18905;42.668;23.364;2022-08-14T12:23:37;8.65;;;6.63;;
28625;SDS011;18905;42.668;23.364;2022-08-14T12:26:05;6.97;;;6.38;;
28625;SDS011;18905;42.668;23.364;2022-08-14T12:28:32;7.68;;;6.20;;
28625;SDS011;18905;42.668;23.364;2022-08-14T12:30:57;7.40;;;6.20;;
28625;SDS011;18905;42.668;23.364;2022-08-14T12:33:27;7.13;;;6.38;;
28625;SDS011;18905;42.668;23.364;2022-08-14T12:35:57;6.78;;;5.75;;
28625;SDS011;18905;42.668;23.364;2022-08-14T12:38:31;6.43;;;5.78;;
28625;SDS011;18905;42.668;23.364;2022-08-14T12:41:02;8.05;;;6.25;;
28625;SDS011;18905;42.668;23.364;2022-08-14T12:43:42;20.92;;;15.57;;
28625;SDS011;18905;42.668;23.364;2022-08-14T12:46:18;7.93;;;6.00;;
28625;SDS011;18905;42.668;23.364;2022-08-14T12:48:50;7.20;;;5.93;;
28625;SDS011;18905;42.668;23.364;2022-08-14T12:51:19;7.40;;;6.60;;
28625;SDS011;18905;42.668;23.364;2022-08-14T12:53:46;9.98;;;6.25;;
28625;SDS011;18905;42.668;23.364;2022-08-14T12:56:16;10.00;;;6.53;;
28625;SDS011;18905;42.668;23.364;2022-08-14T12:58:46;6.60;;;5.90;;
28625;SDS011;18905;42.668;23.364;2022-08-14T13:01:23;10.32;;;6.45;;
28625;SDS011;18905;42.668;23.364;2022-08-14T13:03:50;9.85;;;6.82;;
28625;SDS011;18905;42.668;23.364;2022-08-14T13:06:29;9.77;;;7.25;;
28625;SDS011;18905;42.668;23.364;2022-08-14T13:08:55;8.85;;;6.40;;
28625;SDS011;18905;42.668;23.364;2022-08-14T13:11:20;12.73;;;6.97;;
28625;SDS011;18905;42.668;23.364;2022-08-14T13:13:47;7.65;;;6.85;;
28625;SDS011;18905;42.668;23.364;2022-08-14T13:16:14;9.48;;;6.95;;
28625;SDS011;18905;42.668;23.364;2022-08-14T13:18:42;8.73;;;6.40;;
28625;SDS011;18905;42.668;23.364;2022-08-14T13:21:10;7.57;;;6.75;;
28625;SDS011;18905;42.668;23.364;2022-08-14T13:23:38;8.63;;;7.63;;
28625;SDS011;18905;42.668;23.364;2022-08-14T13:26:06;8.60;;;6.80;;
28625;SDS011;18905;42.668;23.364;2022-08-14T13:28:32;9.20;;;6.68;;
28625;SDS011;18905;42.668;23.364;2022-08-14T13:31:02;10.18;;;6.85;;
28625;SDS011;18905;42.668;23.364;2022-08-14T13:33:30;10.75;;;7.20;;
28625;SDS011;18905;42.668;23.364;2022-08-14T13:35:59;7.55;;;6.63;;
28625;SDS011;18905;42.668;23.364;2022-08-14T13:38:26;7.82;;;6.78;;
28625;SDS011;18905;42.668;23.364;2022-08-14T13:40:55;9.98;;;6.47;;
28625;SDS011;18905;42.668;23.364;2022-08-14T13:43:22;8.02;;;6.85;;
28625;SDS011;18905;42.668;23.364;2022-08-14T13:45:50;11.43;;;7.10;;
28625;SDS011;18905;42.668;23.364;2022-08-14T13:48:19;7.72;;;6.80;;
28625;SDS011;18905;42.668;23.364;2022-08-14T13:50:46;8.25;;;7.40;;
28625;SDS011;18905;42.668;23.364;2022-08-14T13:53:15;11.88;;;7.50;;
28625;SDS011;18905;42.668;23.364;2022-08-14T13:55:41;10.88;;;7.45;;
28625;SDS011;18905;42.668;23.364;2022-08-14T13:58:10;11.07;;;7.57;;
28625;SDS011;18905;42.668;23.364;2022-08-14T14:00:38;13.25;;;7.35;;
28625;SDS011;18905;42.668;23.364;2022-08-14T14:03:04;10.32;;;6.57;;
28625;SDS011;18905;42.668;23.364;2022-08-14T14:05:31;10.13;;;6.57;;
28625;SDS011;18905;42.668;23.364;2022-08-14T14:08:00;10.35;;;7.13;;
28625;SDS011;18905;42.668;23.364;2022-08-14T14:10:30;11.93;;;6.95;;
28625;SDS011;18905;42.668;23.364;2022-08-14T14:13:00;12.00;;;7.47;;
28625;SDS011;18905;42.668;23.364;2022-08-14T14:15:26;10.23;;;6.97;;
28625;SDS011;18905;42.668;23.364;2022-08-14T14:17:52;9.00;;;5.90;;
28625;SDS011;18905;42.668;23.364;2022-08-14T14:20:18;13.63;;;5.72;;
28625;SDS011;18905;42.668;23.364;2022-08-14T14:22:45;6.15;;;5.50;;
28625;SDS011;18905;42.668;23.364;2022-08-14T14:25:12;9.57;;;5.95;;
28625;SDS011;18905;42.668;23.364;2022-08-14T14:27:40;13.80;;;6.20;;
28625;SDS011;18905;42.668;23.364;2022-08-14T14:30:07;10.05;;;6.00;;
28625;SDS011;18905;42.668;23.364;2022-08-14T14:32:33;8.32;;;6.38;;
28625;SDS011;18905;42.668;23.364;2022-08-14T14:35:05;7.55;;;6.43;;
28625;SDS011;18905;42.668;23.364;2022-08-14T14:37:35;7.03;;;5.53;;
28625;SDS011;18905;42.668;23.364;2022-08-14T14:40:04;7.93;;;5.60;;
28625;SDS011;18905;42.668;23.364;2022-08-14T14:42:31;8.23;;;6.07;;